Time;durP1;ratioP1;P1;durP2;ratioP2;P2;SDS_P1;SDS_P2;PMS_P1;PMS_P2;Temp;Humidity;BMP_temperature;BMP_pressure;BME280_temperature;BME280_humidity;BME280_pressure;Samples;Min_cycle;Max_cycle;Signal;HPM_P1;HPM_P2
2023/10/08 00:01:50;;;;;;;4.07;1.00;;;14.30;99.90;;;;;;5060457;28;20496;-67
2023/10/08 00:04:19;;;;;;;2.78;0.80;;;14.30;99.90;;;;;;5055979;28;20095;-67
2023/10/08 00:06:46;;;;;;;3.53;0.85;;;14.30;99.90;;;;;;5056507;28;20519;-67
2023/10/08 00:09:14;;;;;;;3.03;1.00;;;14.30;99.90;;;;;;5061265;28;20103;-67
2023/10/08 00:11:40;;;;;;;2.17;0.60;;;14.30;99.90;;;;;;5056605;28;20104;-67
2023/10/08 00:14:10;;;;;;;4.22;0.77;;;14.30;99.90;;;;;;5058637;28;20037;-67
2023/10/08 00:16:39;;;;;;;3.65;1.10;;;14.20;99.90;;;;;;5062631;28;20496;-67
2023/10/08 00:19:14;;;;;;;2.42;0.95;;;14.20;99.90;;;;;;5055817;28;20104;-67
2023/10/08 00:21:44;;;;;;;1.77;1.40;;;14.20;99.90;;;;;;5055697;28;20453;-67
2023/10/08 00:24:10;;;;;;;2.58;1.77;;;14.20;99.90;;;;;;5059253;28;20044;-67
2023/10/08 00:26:39;;;;;;;3.05;1.95;;;14.10;99.90;;;;;;5060469;28;20074;-67
2023/10/08 00:29:16;;;;;;;1.63;1.30;;;14.10;99.90;;;;;;5056489;28;20029;-67
2023/10/08 00:31:45;;;;;;;3.10;1.38;;;14.10;99.90;;;;;;5055588;28;20025;-67
2023/10/08 00:34:14;;;;;;;2.92;1.50;;;14.10;99.90;;;;;;5055343;28;20121;-67
2023/10/08 00:36:41;;;;;;;4.75;1.50;;;14.10;99.90;;;;;;5060422;28;20032;-67
2023/10/08 00:39:13;;;;;;;4.57;1.50;;;14.10;99.90;;;;;;5060934;28;20031;-67
2023/10/08 00:41:43;;;;;;;2.15;1.20;;;14.10;99.90;;;;;;5064538;28;20031;-67
2023/10/08 00:44:13;;;;;;;1.70;0.60;;;14.10;99.90;;;;;;5065030;28;20039;-67
2023/10/08 00:46:47;;;;;;;2.38;0.55;;;14.10;99.90;;;;;;5075138;28;20059;-67
2023/10/08 00:49:24;;;;;;;0.70;0.60;;;14.10;99.90;;;;;;5058731;28;20032;-67
2023/10/08 00:57:26;;;;;;;1.27;0.95;;;14.20;99.90;;;;;;5064233;28;20031;-67
2023/10/08 00:59:55;;;;;;;1.27;0.63;;;14.20;99.90;;;;;;5065173;28;20032;-67
2023/10/08 01:02:55;;;;;;;1.73;0.65;;;14.20;99.90;;;;;;5062583;28;20028;-67
2023/10/08 01:05:23;;;;;;;1.00;0.60;;;14.20;99.90;;;;;;5062258;28;20120;-67
2023/10/08 01:07:51;;;;;;;1.83;0.90;;;14.10;99.90;;;;;;5062733;28;20029;-67
2023/10/08 01:10:20;;;;;;;2.10;0.98;;;14.20;99.90;;;;;;5059703;28;20108;-67
2023/10/08 01:13:02;;;;;;;1.13;0.77;;;14.20;99.90;;;;;;5061134;28;20578;-67
2023/10/08 01:15:31;;;;;;;3.22;0.93;;;14.20;99.90;;;;;;5062046;28;20033;-67
2023/10/08 01:18:06;;;;;;;2.92;0.70;;;14.20;99.90;;;;;;5061922;28;20055;-67
2023/10/08 01:20:38;;;;;;;3.75;0.88;;;14.20;99.90;;;;;;5063598;28;20614;-67
2023/10/08 01:23:13;;;;;;;3.15;0.93;;;14.20;99.90;;;;;;5062729;28;20523;-67
2023/10/08 01:25:42;;;;;;;2.33;0.70;;;14.20;99.90;;;;;;5062948;28;20744;-67
2023/10/08 01:28:17;;;;;;;2.72;0.60;;;14.20;99.90;;;;;;5065291;28;20036;-67
2023/10/08 01:30:47;;;;;;;1.47;0.90;;;14.20;99.90;;;;;;5055429;28;20397;-67
2023/10/08 01:33:15;;;;;;;3.40;1.00;;;14.10;99.90;;;;;;5042922;28;20021;-67
2023/10/08 01:35:42;;;;;;;1.92;0.70;;;14.10;99.90;;;;;;5064503;28;20024;-67
2023/10/08 01:38:13;;;;;;;2.17;1.00;;;14.20;99.90;;;;;;5059204;28;20028;-67
2023/10/08 01:40:42;;;;;;;0.60;0.60;;;14.10;99.90;;;;;;5055109;28;20028;-67
2023/10/08 01:43:09;;;;;;;2.47;1.10;;;14.10;99.90;;;;;;5056844;28;20016;-67
2023/10/08 01:45:40;;;;;;;2.40;1.05;;;14.10;99.90;;;;;;5064437;28;20446;-67
2023/10/08 01:48:09;;;;;;;2.80;0.90;;;14.10;99.90;;;;;;5064495;28;20028;-67
2023/10/08 01:50:36;;;;;;;1.58;0.80;;;14.10;99.90;;;;;;5063320;28;20028;-67
2023/10/08 01:53:02;;;;;;;2.67;0.68;;;14.10;99.90;;;;;;5059231;28;20052;-67
2023/10/08 01:55:33;;;;;;;1.33;0.70;;;14.00;99.90;;;;;;5061283;28;20528;-67
2023/10/08 01:57:59;;;;;;;1.58;0.70;;;14.00;99.90;;;;;;5064913;28;20036;-67
2023/10/08 02:00:26;;;;;;;5.28;0.77;;;14.00;99.90;;;;;;5060202;28;20404;-67
2023/10/08 02:02:58;;;;;;;1.52;0.50;;;14.00;99.90;;;;;;5062482;28;20028;-67
2023/10/08 02:05:23;;;;;;;3.05;0.50;;;14.00;99.90;;;;;;5062915;28;20132;-67
2023/10/08 02:07:51;;;;;;;2.75;0.60;;;14.00;99.90;;;;;;5064665;28;20440;-67
2023/10/08 02:10:16;;;;;;;3.10;0.82;;;14.00;99.90;;;;;;5059285;28;20033;-67
2023/10/08 02:12:42;;;;;;;2.00;0.77;;;14.00;99.90;;;;;;5064069;28;20043;-67
2023/10/08 02:15:11;;;;;;;1.50;0.70;;;14.00;99.90;;;;;;5059556;28;20024;-67
2023/10/08 02:17:38;;;;;;;1.35;0.70;;;14.00;99.90;;;;;;5062834;28;20127;-67
2023/10/08 02:20:05;;;;;;;1.38;0.60;;;14.00;99.90;;;;;;5059887;28;20095;-67
2023/10/08 02:22:35;;;;;;;2.42;0.98;;;14.00;99.90;;;;;;5061359;28;20747;-67
2023/10/08 02:25:02;;;;;;;2.58;0.90;;;14.00;99.90;;;;;;5058290;28;20500;-68
2023/10/08 02:27:28;;;;;;;1.63;0.85;;;14.00;99.90;;;;;;5061688;28;20514;-67
2023/10/08 02:29:54;;;;;;;6.55;0.82;;;14.00;99.90;;;;;;5059800;28;20043;-68
2023/10/08 02:32:22;;;;;;;1.38;0.60;;;14.00;99.90;;;;;;5064051;28;20511;-67
2023/10/08 02:34:50;;;;;;;2.33;0.90;;;14.00;99.90;;;;;;5064676;28;20032;-67
2023/10/08 02:37:16;;;;;;;1.60;1.00;;;14.00;99.90;;;;;;5056884;28;20029;-67
2023/10/08 02:39:42;;;;;;;1.58;0.60;;;14.00;99.90;;;;;;5058883;28;20090;-67
2023/10/08 02:42:10;;;;;;;2.35;0.73;;;14.00;99.90;;;;;;5060407;28;20036;-67
2023/10/08 02:44:41;;;;;;;3.53;0.73;;;14.00;99.90;;;;;;5059455;28;20150;-67
2023/10/08 02:47:20;;;;;;;3.58;0.80;;;14.00;99.90;;;;;;5060446;28;20048;-67
2023/10/08 02:49:48;;;;;;;3.72;0.80;;;14.00;99.90;;;;;;5058333;28;20024;-67
2023/10/08 02:52:15;;;;;;;1.35;0.80;;;14.00;99.90;;;;;;5063441;28;20118;-67
2023/10/08 02:54:41;;;;;;;0.90;0.68;;;14.00;99.90;;;;;;5064730;28;20036;-67
2023/10/08 02:57:14;;;;;;;2.38;0.98;;;14.00;99.90;;;;;;5059748;28;20104;-67
2023/10/08 02:59:40;;;;;;;3.25;0.98;;;14.00;99.90;;;;;;5056546;28;20028;-67
2023/10/08 03:02:18;;;;;;;4.65;1.00;;;14.00;99.90;;;;;;5056750;28;20050;-63
2023/10/08 03:04:45;;;;;;;2.70;1.02;;;14.00;99.90;;;;;;5063069;28;20051;-63
2023/10/08 03:07:21;;;;;;;5.47;1.30;;;14.00;99.90;;;;;;5056682;28;20467;-63
2023/10/08 03:09:50;;;;;;;3.75;1.20;;;14.00;99.90;;;;;;5061897;28;20025;-63
2023/10/08 03:12:17;;;;;;;5.50;1.25;;;13.90;99.90;;;;;;5055425;28;20493;-63
2023/10/08 03:15:29;;;;;;;3.00;1.00;;;13.90;99.90;;;;;;5058018;28;20064;-63
2023/10/08 03:17:29;;;;;;;3.75;1.15;;;13.90;99.90;;;;;;5048183;28;20108;-63
2023/10/08 03:20:27;;;;;;;4.47;1.33;;;13.90;99.90;;;;;;5062734;28;20556;-63
2023/10/08 03:22:45;;;;;;;4.63;1.33;;;13.90;99.90;;;;;;5055870;28;20054;-63
2023/10/08 03:25:17;;;;;;;2.67;1.00;;;13.90;99.90;;;;;;5059294;28;20040;-63
2023/10/08 03:27:43;;;;;;;5.22;1.48;;;13.90;99.90;;;;;;5046165;28;20713;-63
2023/10/08 03:30:15;;;;;;;3.42;1.25;;;13.90;99.90;;;;;;5054959;28;20036;-63
2023/10/08 03:32:50;;;;;;;4.28;1.02;;;13.90;99.90;;;;;;5061445;28;20123;-63
2023/10/08 03:35:27;;;;;;;4.80;0.90;;;13.90;99.90;;;;;;5059343;28;20122;-63
2023/10/08 03:38:17;;;;;;;4.15;1.30;;;13.90;99.90;;;;;;5055970;28;20051;-63
2023/10/08 03:40:44;;;;;;;3.45;1.05;;;13.90;99.90;;;;;;5055851;28;20114;-63
2023/10/08 03:43:19;;;;;;;9.48;1.70;;;13.90;99.90;;;;;;5055711;28;20024;-63
2023/10/08 03:45:51;;;;;;;7.15;1.50;;;13.90;99.90;;;;;;5056727;28;20032;-63
2023/10/08 03:48:17;;;;;;;6.38;1.27;;;13.90;99.90;;;;;;5055573;28;20120;-63
2023/10/08 03:50:43;;;;;;;2.88;1.00;;;13.90;99.90;;;;;;5058507;28;20040;-63
2023/10/08 03:53:12;;;;;;;5.05;1.40;;;13.80;99.90;;;;;;5057588;28;20471;-63
2023/10/08 03:55:42;;;;;;;6.32;1.63;;;13.80;99.90;;;;;;5054985;28;20020;-63
2023/10/08 03:58:19;;;;;;;5.13;1.50;;;13.80;99.90;;;;;;5055603;28;20032;-63
2023/10/08 04:00:46;;;;;;;3.75;1.67;;;13.80;99.90;;;;;;5055651;28;20107;-63
2023/10/08 04:03:12;;;;;;;2.58;1.60;;;13.90;99.90;;;;;;5055237;28;20090;-63
2023/10/08 04:05:59;;;;;;;8.75;2.30;;;13.80;99.90;;;;;;5058643;28;20036;-63
2023/10/08 04:08:42;;;;;;;7.10;1.83;;;13.80;99.90;;;;;;5056964;28;20033;-63
2023/10/08 04:13:54;;;;;;;4.00;1.50;;;13.80;99.90;;;;;;5052251;28;20417;-63
2023/10/08 04:16:20;;;;;;;8.00;1.90;;;13.80;99.90;;;;;;5058485;28;20024;-63
2023/10/08 04:18:50;;;;;;;2.85;1.50;;;13.80;99.90;;;;;;5056962;28;20078;-63
2023/10/08 04:21:20;;;;;;;4.38;1.83;;;13.90;99.90;;;;;;5058320;28;20020;-63
2023/10/08 04:23:51;;;;;;;4.13;1.70;;;13.90;99.90;;;;;;5056663;28;20082;-63
2023/10/08 04:26:23;;;;;;;4.43;1.65;;;13.80;99.90;;;;;;5058382;28;20127;-63
2023/10/08 04:28:56;;;;;;;9.68;1.75;;;13.80;99.90;;;;;;5056846;28;20143;-63
2023/10/08 04:31:28;;;;;;;9.75;1.88;;;13.90;99.90;;;;;;5059343;28;20025;-63
2023/10/08 04:33:54;;;;;;;4.35;1.40;;;13.80;99.90;;;;;;5055280;28;20033;-66
2023/10/08 04:36:20;;;;;;;5.78;1.75;;;13.80;99.90;;;;;;5059613;28;20101;-67
2023/10/08 04:38:54;;;;;;;7.95;2.08;;;13.80;99.90;;;;;;5057349;28;20032;-67
2023/10/08 04:41:27;;;;;;;6.97;2.08;;;13.80;99.90;;;;;;5058979;28;20043;-67
2023/10/08 04:43:55;;;;;;;4.88;1.70;;;13.80;99.90;;;;;;5055263;28;20098;-67
2023/10/08 04:46:46;;;;;;;5.97;1.45;;;13.80;99.90;;;;;;5060132;28;20098;-67
2023/10/08 04:49:27;;;;;;;4.07;2.30;;;13.80;99.90;;;;;;5059300;28;20029;-66
2023/10/08 04:51:56;;;;;;;5.60;1.60;;;13.80;99.90;;;;;;5062988;28;20039;-67
2023/10/08 04:54:31;;;;;;;7.30;2.17;;;13.80;99.90;;;;;;5054596;28;20123;-67
2023/10/08 04:56:58;;;;;;;6.20;2.30;;;13.80;99.90;;;;;;5062003;28;20028;-67
2023/10/08 04:59:32;;;;;;;5.03;2.00;;;13.80;99.90;;;;;;5054851;28;20469;-67
2023/10/08 05:07:40;;;;;;;7.70;2.05;;;13.80;99.90;;;;;;5058605;28;20041;-67
2023/10/08 05:20:29;;;;;;;6.32;2.13;;;13.80;99.90;;;;;;5059081;28;20021;-67
2023/10/08 05:23:05;;;;;;;5.90;1.83;;;13.70;99.90;;;;;;5059430;28;20130;-67
2023/10/08 05:25:57;;;;;;;;;;;13.80;99.90;;;;;;5059816;28;20061;-67
2023/10/08 05:28:26;;;;;;;4.18;1.73;;;13.80;99.90;;;;;;5067037;28;19912;-68
2023/10/08 05:31:11;;;;;;;4.80;1.40;;;13.80;99.90;;;;;;5062553;28;20608;-67
2023/10/08 05:36:18;;;;;;;7.05;2.25;;;13.70;99.90;;;;;;5062834;28;20028;-67
2023/10/08 05:41:51;;;;;;;11.00;2.38;;;13.60;99.90;;;;;;5038330;28;20036;-67
2023/10/08 06:03:00;;;;;;;3.55;1.48;;;13.40;99.90;;;;;;5060740;28;20207;-67
2023/10/08 06:05:26;;;;;;;3.85;1.60;;;13.40;99.90;;;;;;5058650;28;20106;-68
2023/10/08 06:13:09;;;;;;;5.68;2.30;;;13.60;99.90;;;;;;5062674;28;20047;-67
2023/10/08 06:18:31;;;;;;;5.88;2.10;;;13.60;99.90;;;;;;5059887;28;20033;-67
2023/10/08 06:21:08;;;;;;;3.00;1.90;;;13.60;99.90;;;;;;5059674;28;20020;-67
2023/10/08 06:23:36;;;;;;;7.88;2.00;;;13.60;99.90;;;;;;5062282;28;20459;-68
2023/10/08 06:26:13;;;;;;;9.45;2.15;;;13.70;99.90;;;;;;5061953;28;20036;-67
2023/10/08 06:28:44;;;;;;;7.45;2.13;;;13.70;99.90;;;;;;5059191;28;20081;-67
2023/10/08 06:31:16;;;;;;;4.70;2.05;;;13.80;99.90;;;;;;5058205;28;20029;-68
2023/10/08 06:33:43;;;;;;;7.20;2.38;;;13.80;99.90;;;;;;5056175;28;20035;-67
2023/10/08 06:38:42;;;;;;;6.78;1.60;;;13.90;99.90;;;;;;5063655;28;20031;-67
2023/10/08 06:44:02;;;;;;;5.40;1.70;;;13.90;99.90;;;;;;5060685;28;20050;-67
2023/10/08 06:46:32;;;;;;;7.10;2.10;;;13.90;99.90;;;;;;5056406;28;20040;-66
2023/10/08 06:49:03;;;;;;;3.55;1.80;;;14.00;99.90;;;;;;5062451;28;20036;-67
2023/10/08 06:51:30;;;;;;;2.92;1.70;;;14.00;99.90;;;;;;5058556;28;20048;-67
2023/10/08 06:54:00;;;;;;;3.20;1.83;;;14.00;99.90;;;;;;5061363;28;20074;-67
2023/10/08 06:56:25;;;;;;;5.40;1.77;;;14.00;99.90;;;;;;5057450;28;20025;-67
2023/10/08 06:58:54;;;;;;;7.25;2.08;;;14.10;99.90;;;;;;5065322;28;20032;-67
2023/10/08 07:01:24;;;;;;;5.00;2.15;;;14.10;99.90;;;;;;5054508;28;20032;-68
2023/10/08 07:04:03;;;;;;;5.22;2.20;;;14.10;99.90;;;;;;5064830;28;20032;-67
2023/10/08 07:06:33;;;;;;;7.13;1.90;;;14.00;99.90;;;;;;5056352;28;20033;-67
2023/10/08 07:09:06;;;;;;;6.63;1.90;;;14.00;99.90;;;;;;5060819;28;20032;-67
2023/10/08 07:11:39;;;;;;;5.82;1.88;;;14.10;99.90;;;;;;5056291;28;20032;-67
2023/10/08 07:14:05;;;;;;;4.63;2.17;;;14.20;99.90;;;;;;5061217;28;20032;-67
2023/10/08 07:16:34;;;;;;;5.95;1.75;;;14.20;99.90;;;;;;5059648;28;20206;-67
2023/10/08 07:19:15;;;;;;;5.43;1.98;;;14.20;99.90;;;;;;5062276;28;20025;-67
2023/10/08 07:21:47;;;;;;;10.20;1.80;;;14.30;99.90;;;;;;5055982;28;20036;-68
2023/10/08 07:24:17;;;;;;;8.35;2.42;;;14.40;99.90;;;;;;5057965;28;20032;-68
2023/10/08 07:26:46;;;;;;;7.07;2.10;;;14.40;99.90;;;;;;5062198;28;20033;-68
2023/10/08 07:29:16;;;;;;;4.45;1.70;;;14.40;99.90;;;;;;5058921;28;20033;-67
2023/10/08 07:31:48;;;;;;;3.60;1.40;;;14.30;99.90;;;;;;5064081;28;20039;-68
2023/10/08 07:36:47;;;;;;;3.88;1.45;;;14.30;99.90;;;;;;5057329;28;20090;-67
2023/10/08 07:41:59;;;;;;;5.05;1.67;;;14.30;99.90;;;;;;5058322;28;20032;-67
2023/10/08 07:44:28;;;;;;;7.45;2.05;;;14.30;99.90;;;;;;5058827;28;20029;-68
2023/10/08 07:46:57;;;;;;;4.75;1.38;;;14.30;99.90;;;;;;5058307;28;20050;-68
2023/10/08 07:49:25;;;;;;;5.75;1.30;;;14.30;99.90;;;;;;5061504;28;20052;-67
2023/10/08 07:51:51;;;;;;;4.20;1.40;;;14.20;99.90;;;;;;5053850;28;20048;-67
2023/10/08 07:54:34;;;;;;;2.72;1.23;;;14.20;99.90;;;;;;5061453;28;20025;-67
2023/10/08 07:57:11;;;;;;;3.72;1.23;;;14.20;99.90;;;;;;5062650;28;20039;-68
2023/10/08 07:59:46;;;;;;;1.80;1.02;;;14.20;99.90;;;;;;5059925;28;20369;-68
2023/10/08 08:02:14;;;;;;;6.07;1.42;;;14.20;99.90;;;;;;5059947;28;20048;-68
2023/10/08 08:04:43;;;;;;;3.35;1.10;;;14.20;99.90;;;;;;5041757;28;20057;-66
2023/10/08 08:07:15;;;;;;;2.92;1.10;;;14.20;99.90;;;;;;5056515;28;20028;-68
2023/10/08 08:09:50;;;;;;;5.32;1.77;;;14.20;99.90;;;;;;5058821;28;20036;-68
2023/10/08 08:12:24;;;;;;;2.38;1.10;;;14.20;99.90;;;;;;5062281;28;20111;-69
2023/10/08 08:14:54;;;;;;;4.43;0.90;;;14.20;99.90;;;;;;5063356;28;20403;-71
2023/10/08 08:17:22;;;;;;;3.90;0.85;;;14.20;99.90;;;;;;5058394;28;20123;-69
2023/10/08 08:19:51;;;;;;;1.25;1.02;;;14.20;99.90;;;;;;5063273;28;20032;-68
2023/10/08 08:22:21;;;;;;;3.65;1.08;;;14.10;99.90;;;;;;5059079;28;20028;-68
2023/10/08 08:25:02;;;;;;;3.55;0.70;;;14.20;99.90;;;;;;5061350;28;20082;-68
2023/10/08 08:27:34;;;;;;;3.33;1.00;;;14.20;99.90;;;;;;5057040;28;20132;-68
2023/10/08 08:30:10;;;;;;;2.75;0.98;;;14.20;99.90;;;;;;5061229;28;20041;-68
2023/10/08 08:32:40;;;;;;;5.75;1.02;;;14.10;99.90;;;;;;5059333;28;20063;-68
2023/10/08 08:35:09;;;;;;;4.53;0.90;;;14.10;99.90;;;;;;5055793;28;20047;-68
2023/10/08 08:37:38;;;;;;;2.05;0.60;;;14.00;99.90;;;;;;5056149;28;20025;-68
2023/10/08 08:40:09;;;;;;;3.47;0.70;;;14.10;99.90;;;;;;5054527;28;20108;-68
2023/10/08 08:42:36;;;;;;;1.73;0.82;;;14.10;99.90;;;;;;5058640;28;20037;-68
2023/10/08 08:45:09;;;;;;;2.80;0.70;;;14.10;99.90;;;;;;5062060;28;20072;-68
2023/10/08 08:47:40;;;;;;;1.67;0.80;;;14.10;99.90;;;;;;5054635;28;20055;-68
2023/10/08 08:50:10;;;;;;;1.35;0.70;;;14.10;99.90;;;;;;5054693;28;20108;-68
2023/10/08 08:52:40;;;;;;;3.92;0.93;;;14.10;99.90;;;;;;5062001;28;20041;-68
2023/10/08 08:55:14;;;;;;;3.10;0.60;;;14.20;99.90;;;;;;5059290;28;20037;-68
2023/10/08 08:57:44;;;;;;;3.17;0.68;;;14.20;99.90;;;;;;5059441;28;20035;-69
2023/10/08 09:00:14;;;;;;;2.20;0.90;;;14.30;99.90;;;;;;5063735;28;20028;-68
2023/10/08 09:02:41;;;;;;;6.38;0.95;;;14.40;99.90;;;;;;5061355;28;20025;-68
2023/10/08 09:05:23;;;;;;;2.10;0.50;;;14.50;99.90;;;;;;5065736;28;20068;-68
2023/10/08 09:07:58;;;;;;;2.80;0.70;;;14.60;99.90;;;;;;5063549;28;20056;-68
2023/10/08 09:10:29;;;;;;;2.88;0.80;;;14.60;99.60;;;;;;5065854;28;20112;-67
2023/10/08 09:12:58;;;;;;;2.63;0.70;;;14.70;99.90;;;;;;5059446;28;20044;-67
2023/10/08 09:15:26;;;;;;;1.77;0.80;;;14.80;99.90;;;;;;5063741;28;20078;-68
2023/10/08 09:17:53;;;;;;;2.05;0.50;;;14.90;99.90;;;;;;5061591;28;20149;-68
2023/10/08 09:20:20;;;;;;;3.17;0.90;;;14.90;99.90;;;;;;5064469;28;20020;-66
2023/10/08 09:23:07;;;;;;;1.83;0.80;;;15.00;99.90;;;;;;5062734;28;20024;-65
2023/10/08 09:25:36;;;;;;;3.38;0.70;;;15.00;99.90;;;;;;5062354;28;20118;-68
2023/10/08 09:28:02;;;;;;;3.53;0.70;;;15.20;99.90;;;;;;5060198;28;20044;-67
2023/10/08 09:30:33;;;;;;;3.25;0.65;;;15.30;99.90;;;;;;5061401;28;20680;-68
2023/10/08 09:32:58;;;;;;;1.17;0.47;;;15.40;99.90;;;;;;5035346;28;20028;-67
2023/10/08 09:35:26;;;;;;;1.67;0.90;;;15.50;99.90;;;;;;5062221;28;20366;-65
2023/10/08 09:37:54;;;;;;;1.38;0.50;;;15.60;99.90;;;;;;5062493;28;20070;-68
2023/10/08 09:40:21;;;;;;;0.65;0.60;;;15.60;99.90;;;;;;5064706;28;20061;-68
2023/10/08 09:42:47;;;;;;;1.38;0.47;;;15.70;99.90;;;;;;5065495;28;20443;-68
2023/10/08 09:45:14;;;;;;;0.77;0.43;;;15.60;99.80;;;;;;5063233;28;20024;-67
2023/10/08 09:47:47;;;;;;;1.20;0.50;;;15.60;99.10;;;;;;5062649;28;20024;-66
2023/10/08 09:50:15;;;;;;;0.32;0.30;;;15.50;99.80;;;;;;5059146;28;20089;-66
2023/10/08 09:53:10;;;;;;;2.97;0.60;;;15.50;99.80;;;;;;5064553;28;20048;-66
2023/10/08 09:55:41;;;;;;;1.38;0.40;;;15.40;99.30;;;;;;5054454;28;20040;-66
2023/10/08 09:58:11;;;;;;;1.48;0.60;;;15.40;98.20;;;;;;5065995;28;20127;-66
2023/10/08 10:00:38;;;;;;;0.73;0.30;;;15.30;99.00;;;;;;5064179;28;20042;-66
2023/10/08 10:03:04;;;;;;;0.90;0.30;;;15.30;98.30;;;;;;5059017;28;20456;-67
2023/10/08 10:05:35;;;;;;;1.23;0.43;;;15.50;95.30;;;;;;5065260;28;20024;-67
2023/10/08 10:08:05;;;;;;;1.85;0.50;;;15.80;97.50;;;;;;5062442;28;20029;-66
2023/10/08 10:10:37;;;;;;;1.55;0.47;;;16.10;95.00;;;;;;5064735;28;20117;-67
2023/10/08 10:13:07;;;;;;;0.45;0.38;;;16.40;97.40;;;;;;5061914;28;20105;-67
2023/10/08 10:15:35;;;;;;;1.10;0.52;;;17.10;94.70;;;;;;5061159;28;20039;-67
2023/10/08 10:18:26;;;;;;;1.63;0.50;;;17.40;92.50;;;;;;5062210;28;20462;-67
2023/10/08 10:20:56;;;;;;;0.88;0.32;;;17.40;94.00;;;;;;5055043;28;20021;-67
2023/10/08 10:23:37;;;;;;;0.43;0.30;;;17.50;90.60;;;;;;5059475;28;20845;-67
2023/10/08 10:26:04;;;;;;;0.68;0.40;;;17.80;92.40;;;;;;5061277;28;20140;-67
2023/10/08 10:28:30;;;;;;;1.27;0.55;;;18.70;90.20;;;;;;5060847;28;20040;-67
2023/10/08 10:31:00;;;;;;;1.08;0.30;;;19.30;84.90;;;;;;5062407;28;20071;-67
2023/10/08 10:33:39;;;;;;;0.47;0.30;;;20.60;82.50;;;;;;5055982;28;20060;-67
2023/10/08 10:36:08;;;;;;;1.23;0.50;;;22.50;68.10;;;;;;5062238;28;20028;-71
2023/10/08 10:38:35;;;;;;;2.25;0.43;;;24.00;70.30;;;;;;5061584;28;20504;-66
2023/10/08 10:41:08;;;;;;;1.02;0.55;;;25.00;67.50;;;;;;5063244;28;20103;-66
2023/10/08 10:43:35;;;;;;;0.60;0.52;;;25.50;63.90;;;;;;5060794;28;20037;-67
2023/10/08 10:49:05;;;;;;;2.00;0.43;;;24.70;64.80;;;;;;5060185;28;20075;-67
2023/10/08 10:51:31;;;;;;;0.63;0.30;;;24.60;63.40;;;;;;5060178;28;20125;-67
2023/10/08 10:54:03;;;;;;;0.40;0.30;;;25.40;57.80;;;;;;5056925;28;20123;-67
2023/10/08 10:56:29;;;;;;;0.75;0.50;;;25.10;59.40;;;;;;5060991;28;20043;-67
2023/10/08 10:59:15;;;;;;;1.88;0.57;;;24.70;61.00;;;;;;5061397;28;20020;-67
2023/10/08 11:01:46;;;;;;;3.05;0.77;;;24.30;61.80;;;;;;5065054;28;20039;-67
2023/10/08 11:04:19;;;;;;;2.80;0.43;;;23.00;57.90;;;;;;5056712;28;20044;-67
2023/10/08 11:06:47;;;;;;;2.10;0.57;;;21.70;63.80;;;;;;5060357;28;20036;-67
2023/10/08 11:09:16;;;;;;;4.97;0.45;;;20.70;69.20;;;;;;5058285;28;20033;-67
2023/10/08 11:11:53;;;;;;;2.33;0.70;;;20.00;73.40;;;;;;5055283;28;20047;-67
2023/10/08 11:14:19;;;;;;;2.58;0.50;;;19.40;71.20;;;;;;5063942;28;20381;-69
2023/10/08 11:16:47;;;;;;;1.33;0.30;;;18.80;71.40;;;;;;5061938;28;20036;-67
2023/10/08 11:19:15;;;;;;;0.60;0.30;;;18.50;74.00;;;;;;5061685;28;20028;-67
2023/10/08 11:21:53;;;;;;;1.25;0.55;;;18.30;75.70;;;;;;5053688;28;20040;-67
2023/10/08 11:24:33;;;;;;;1.48;0.40;;;18.20;79.70;;;;;;5056322;28;20036;-67
2023/10/08 11:27:28;;;;;;;1.55;0.50;;;18.10;76.70;;;;;;5062832;28;20040;-67
2023/10/08 11:29:59;;;;;;;1.05;0.40;;;18.00;63.30;;;;;;5058335;28;20487;-67
2023/10/08 11:32:26;;;;;;;2.55;0.63;;;17.90;72.10;;;;;;5061747;28;20050;-67
2023/10/08 11:34:59;;;;;;;2.13;0.47;;;17.80;70.20;;;;;;5063912;28;20024;-67
2023/10/08 11:37:35;;;;;;;2.60;0.50;;;17.70;73.40;;;;;;5063872;28;20028;-67
2023/10/08 11:40:28;;;;;;;;;;;17.60;73.00;;;;;;5060283;28;20111;-67
2023/10/08 11:42:51;;;;;;;1.20;0.38;;;17.50;72.40;;;;;;5058722;28;20597;-67
2023/10/08 11:45:26;;;;;;;0.52;0.25;;;17.50;71.50;;;;;;5058584;28;20047;-68
2023/10/08 11:47:56;;;;;;;2.13;0.82;;;17.50;78.80;;;;;;5063545;28;20571;-67
2023/10/08 11:50:35;;;;;;;3.40;0.50;;;17.50;76.30;;;;;;5064016;28;20127;-67
2023/10/08 11:53:11;;;;;;;1.77;0.70;;;17.60;79.80;;;;;;5056796;28;20139;-68
2023/10/08 11:55:38;;;;;;;0.68;0.30;;;17.60;75.80;;;;;;5061898;28;20029;-67
2023/10/08 11:58:10;;;;;;;2.08;0.70;;;17.60;73.70;;;;;;5063911;28;20103;-67
2023/10/08 12:00:51;;;;;;;1.15;0.50;;;17.70;73.00;;;;;;5063488;28;20094;-67
2023/10/08 12:03:18;;;;;;;0.75;0.50;;;17.70;69.40;;;;;;5060190;28;20052;-67
2023/10/08 12:05:48;;;;;;;1.98;0.45;;;17.70;68.50;;;;;;5058405;28;20032;-67
2023/10/08 12:08:20;;;;;;;1.98;0.55;;;17.70;73.30;;;;;;5061180;28;20025;-67
2023/10/08 12:10:47;;;;;;;2.30;0.60;;;17.70;78.40;;;;;;5060300;28;20032;-67
2023/10/08 12:13:16;;;;;;;1.27;0.35;;;17.70;75.00;;;;;;5058554;28;20832;-65
2023/10/08 12:15:44;;;;;;;0.75;0.45;;;17.80;75.60;;;;;;5058964;28;20028;-66
2023/10/08 12:18:26;;;;;;;1.90;0.55;;;17.80;73.10;;;;;;5063645;28;20566;-68
2023/10/08 12:20:53;;;;;;;0.68;0.40;;;17.70;73.30;;;;;;5057522;28;20115;-68
2023/10/08 12:23:25;;;;;;;1.45;0.50;;;17.60;75.00;;;;;;5063547;28;20081;-68
2023/10/08 12:26:03;;;;;;;1.70;0.50;;;17.60;78.90;;;;;;5056666;28;20028;-68
2023/10/08 12:28:28;;;;;;;1.38;0.57;;;17.60;76.40;;;;;;5063137;28;20033;-68
2023/10/08 12:30:55;;;;;;;0.90;0.50;;;17.60;71.50;;;;;;5063616;28;20032;-67
2023/10/08 12:33:25;;;;;;;1.48;0.50;;;17.50;73.90;;;;;;5063078;28;20025;-67
2023/10/08 12:35:58;;;;;;;1.50;0.73;;;17.50;69.80;;;;;;5063705;28;20820;-67
2023/10/08 12:38:27;;;;;;;1.33;0.63;;;17.40;71.90;;;;;;5063399;28;20021;-67
2023/10/08 12:40:54;;;;;;;1.75;0.68;;;17.50;72.80;;;;;;5064887;28;20591;-67
2023/10/08 12:43:20;;;;;;;0.93;0.60;;;17.60;75.40;;;;;;5067740;28;20025;-66
2023/10/08 12:45:57;;;;;;;2.42;0.63;;;17.70;76.10;;;;;;5065551;28;20135;-67
2023/10/08 12:48:26;;;;;;;0.93;0.52;;;17.70;74.40;;;;;;5066944;28;20139;-66
2023/10/08 12:50:58;;;;;;;0.75;0.40;;;17.80;75.10;;;;;;5064366;28;20048;-69
2023/10/08 12:53:33;;;;;;;1.40;0.77;;;17.80;72.30;;;;;;5065226;28;20024;-68
2023/10/08 12:56:05;;;;;;;1.40;0.40;;;17.80;74.70;;;;;;5066480;28;20492;-68
2023/10/08 12:58:41;;;;;;;0.80;0.55;;;17.70;75.80;;;;;;5064906;28;20103;-68
2023/10/08 13:01:09;;;;;;;0.93;0.50;;;17.60;72.00;;;;;;5066231;28;20086;-67
2023/10/08 13:03:41;;;;;;;2.50;0.60;;;17.50;75.20;;;;;;5066394;28;20447;-68
2023/10/08 13:06:11;;;;;;;1.75;0.77;;;17.40;75.50;;;;;;5067263;28;20028;-68
2023/10/08 13:08:38;;;;;;;1.27;0.70;;;17.30;74.70;;;;;;5065563;28;20062;-68
2023/10/08 13:11:04;;;;;;;1.55;0.40;;;17.20;77.60;;;;;;5062915;28;20042;-68
2023/10/08 13:13:30;;;;;;;0.88;0.40;;;17.10;78.00;;;;;;5062219;28;20029;-68
2023/10/08 13:15:59;;;;;;;1.23;0.52;;;17.10;80.80;;;;;;5065528;28;20493;-68
2023/10/08 13:18:26;;;;;;;0.40;0.38;;;17.00;78.20;;;;;;5064410;28;20078;-68
2023/10/08 13:20:52;;;;;;;2.22;0.30;;;16.90;80.10;;;;;;5062818;28;20037;-68
2023/10/08 13:23:20;;;;;;;0.65;0.50;;;16.90;78.60;;;;;;5062694;28;20029;-68
2023/10/08 13:25:53;;;;;;;1.58;0.55;;;16.90;76.60;;;;;;5059181;28;20067;-68
2023/10/08 13:28:21;;;;;;;1.30;0.52;;;16.80;80.10;;;;;;5061764;28;20107;-64
2023/10/08 13:30:47;;;;;;;1.35;0.70;;;16.70;82.10;;;;;;5063485;28;20032;-65
2023/10/08 13:33:13;;;;;;;1.67;0.60;;;16.70;82.30;;;;;;5066027;28;20036;-65
2023/10/08 13:35:38;;;;;;;1.38;0.90;;;16.70;80.10;;;;;;5065900;28;20043;-64
2023/10/08 13:38:09;;;;;;;2.10;0.68;;;16.70;76.90;;;;;;5065736;28;20112;-64
2023/10/08 13:40:39;;;;;;;2.92;0.80;;;16.70;77.10;;;;;;5066154;28;20033;-64
2023/10/08 13:43:06;;;;;;;2.92;0.85;;;16.70;80.10;;;;;;5065757;28;20105;-64
2023/10/08 13:45:37;;;;;;;2.70;0.95;;;16.70;78.00;;;;;;5059900;28;20039;-65
2023/10/08 13:48:05;;;;;;;2.13;0.85;;;16.80;77.70;;;;;;5065941;28;20032;-64
2023/10/08 13:50:31;;;;;;;3.15;0.98;;;16.90;77.40;;;;;;5065854;28;20105;-65
2023/10/08 13:52:58;;;;;;;1.95;0.63;;;17.00;77.20;;;;;;5064946;28;20420;-65
2023/10/08 13:55:25;;;;;;;3.72;0.80;;;17.00;76.60;;;;;;5061222;28;20036;-64
2023/10/08 13:57:51;;;;;;;3.00;1.10;;;17.10;76.00;;;;;;5064798;28;20024;-64
2023/10/08 14:00:25;;;;;;;2.17;0.60;;;17.10;77.20;;;;;;5065410;28;20040;-65
2023/10/08 14:02:52;;;;;;;2.67;0.70;;;17.10;78.00;;;;;;5065624;28;20056;-62
2023/10/08 14:05:23;;;;;;;1.95;0.98;;;17.20;75.50;;;;;;5063977;28;20036;-64
2023/10/08 14:07:53;;;;;;;1.73;0.68;;;17.30;76.90;;;;;;5065286;28;20115;-65
2023/10/08 14:10:18;;;;;;;1.75;0.50;;;17.30;76.60;;;;;;5062411;28;20506;-65
2023/10/08 14:12:50;;;;;;;2.03;0.68;;;17.40;75.30;;;;;;5064819;28;20041;-64
2023/10/08 14:15:17;;;;;;;4.63;0.93;;;17.30;75.30;;;;;;5065733;28;20033;-65
2023/10/08 14:17:53;;;;;;;1.00;0.60;;;17.30;75.60;;;;;;5058090;28;20115;-64